Startpagina
METAR-TAF:

METAR-TAF

Vliegvelden :

Hagåtña, Guam, Verenigde Staten

breedte: 13-29N, lengte: 144-48E, hoogte: 91 m

Actueel weer

Dit bericht is 38 minuten geleden gemaakt, om 05:54 UTC
Wind 11 kt uit het oostnoordoosten
Temperatuur 31°C
Vochtigheid 66%
Druk 1009 hPa
Zicht: 16.1 km
Onbewolkt

METAR: PGUM 190554Z 07011KT 10SM CLR 31/24 A2981 RMK AO2 SLP087 T03060244 10322 20294 56011

Tijdstip: 16:32 (06:32 UTC)

Verwachting

Dit bericht is 1 uur en het 0 minuten geleden gemaakt, om 05:32 UTC
Verwachting geldig van 19 om 06 UTC tot 20 om 12 UTC
Wind 12 kt uit het oosten
Zicht: 10 km
Weinig wolken op 2500 ft
Verspreide wolken op 7000 ft
buien in de omgeving
Van 19 om 0800 UTC
Wind 7 kt uit het oostnoordoosten
Zicht: 10 km
Weinig wolken op 2000 ft
buien in de omgeving

TAF: PGUM 190532Z 1906/2012 08012KT P6SM VCSH FEW025 SCT070 FM190800 07007KT P6SM VCSH FEW020

Waarnemingen en weersverwachtingen van meer dan 4000 vliegvelden (METAR en TAF).

De beschikbare stations zijn de gele en rode punten op de kaart.

Ga met uw muis naar het station om de naam te zien.

Klik dan om waarnemingen en weersverwachtingen te zien.

kaart wijzigen: klik op de groene knoppen met een zwart kruis om in te zoomen, op de groene knop met een streepje om uit te zoomen of op de groene pijlen voor aangrenzende kaarten.


METAR-TAF: